Time;durP1;ratioP1;P1;durP2;ratioP2;P2;SDS_P1;SDS_P2;PMS_P1;PMS_P2;Temp;Humidity;BMP_temperature;BMP_pressure;BME280_temperature;BME280_humidity;BME280_pressure;Samples;Min_cycle;Max_cycle;Signal;HPM_P1;HPM_P2
2021/07/20 00:00:06;;;;;;;15.77;14.10;;;;;;;24.13;88.33;94389.72;4901166;29;20796;-85
2021/07/20 00:02:35;;;;;;;14.57;13.10;;;;;;;24.13;88.45;94392.41;4900026;29;20444;-86
2021/07/20 00:05:04;;;;;;;15.43;14.03;;;;;;;24.17;87.48;94377.50;4899986;29;20819;-85
2021/07/20 00:07:31;;;;;;;14.57;13.07;;;;;;;24.20;87.40;94395.81;4899981;29;20449;-85
2021/07/20 00:09:59;;;;;;;15.93;14.23;;;;;;;24.21;87.21;94395.56;4899893;29;20489;-85
2021/07/20 00:12:25;;;;;;;15.77;14.27;;;;;;;24.22;87.28;94391.84;4899857;29;20538;-85
2021/07/20 00:14:53;;;;;;;24.00;13.63;;;;;;;24.23;86.90;94396.16;4899836;29;20537;-85
2021/07/20 00:17:22;;;;;;;19.03;14.53;;;;;;;24.22;86.68;94396.41;4900095;29;20910;-85
2021/07/20 00:19:49;;;;;;;14.73;13.30;;;;;;;24.23;87.03;94387.31;4900293;29;20465;-86
2021/07/20 00:22:17;;;;;;;16.23;12.83;;;;;;;24.20;87.40;94393.13;4899780;29;20448;-85
2021/07/20 00:24:44;;;;;;;13.63;12.30;;;;;;;24.21;87.08;94384.03;4900106;29;20456;-86
2021/07/20 00:27:12;;;;;;;15.53;13.43;;;;;;;24.25;87.13;94391.41;4901452;29;21006;-85
2021/07/20 00:29:41;;;;;;;14.77;13.37;;;;;;;24.28;86.54;94385.59;4901782;29;20470;-85
2021/07/20 00:32:09;;;;;;;21.00;13.20;;;;;;;24.28;86.56;94382.09;4900399;29;20903;-85
2021/07/20 00:34:38;;;;;;;16.70;13.00;;;;;;;24.27;86.53;94377.75;4899843;29;20443;-85
2021/07/20 00:37:06;;;;;;;13.90;12.70;;;;;;;24.24;86.55;94384.41;4899888;29;20573;-86
2021/07/20 00:42:57;;;;;;;19.10;14.20;;;;;;;24.04;87.02;94379.31;4900586;29;20506;-86
2021/07/20 00:45:24;;;;;;;15.77;14.23;;;;;;;23.86;86.81;94376.63;4898952;29;20493;-85
2021/07/20 00:47:53;;;;;;;16.80;15.10;;;;;;;23.79;87.70;94371.34;4899189;29;20636;-86
2021/07/20 00:50:25;;;;;;;16.40;13.57;;;;;;;23.78;87.97;94374.25;4866133;29;20510;-85
2021/07/20 00:52:52;;;;;;;14.77;13.13;;;;;;;23.81;88.26;94373.00;4899687;29;20521;-85
2021/07/20 00:55:19;;;;;;;14.60;13.10;;;;;;;23.86;88.30;94376.63;4899358;29;20446;-85
2021/07/20 00:57:47;;;;;;;17.47;15.27;;;;;;;23.85;87.84;94372.31;4898757;29;20486;-85
2021/07/20 01:00:19;;;;;;;17.43;14.50;;;;;;;23.77;87.39;94372.63;4899275;29;20533;-85
2021/07/20 01:02:46;;;;;;;20.50;13.17;;;;;;;23.68;87.56;94369.41;4899190;29;20949;-85
2021/07/20 01:05:16;;;;;;;17.80;15.20;;;;;;;23.65;88.46;94371.72;4898860;29;20962;-85
2021/07/20 01:07:45;;;;;;;16.67;14.53;;;;;;;23.66;88.57;94365.31;4898838;29;20445;-85
2021/07/20 01:10:13;;;;;;;18.00;13.43;;;;;;;23.66;88.73;94368.81;4899425;29;20498;-86
2021/07/20 01:12:43;;;;;;;23.13;13.63;;;;;;;23.67;87.57;94369.63;4899539;29;20536;-85
2021/07/20 01:15:11;;;;;;;15.63;13.80;;;;;;;23.62;88.16;94369.50;4898600;29;20532;-86
2021/07/20 01:17:41;;;;;;;18.37;15.43;;;;;;;23.67;88.98;94364.28;4898996;29;20911;-85
2021/07/20 01:20:11;;;;;;;15.10;13.70;;;;;;;23.72;88.30;94367.13;4898731;29;20916;-85
2021/07/20 01:22:41;;;;;;;19.93;13.83;;;;;;;23.70;87.41;94371.88;4898832;29;20931;-85
2021/07/20 01:25:12;;;;;;;22.83;13.60;;;;;;;23.73;87.16;94374.13;4899039;29;20524;-85
2021/07/20 01:27:50;;;;;;;19.27;14.67;;;;;;;23.70;87.03;94369.19;4898514;29;20458;-85
2021/07/20 01:30:18;;;;;;;15.67;13.70;;;;;;;23.70;86.11;94377.22;4898802;29;20468;-85
2021/07/20 01:32:47;;;;;;;16.40;14.20;;;;;;;23.72;86.16;94377.84;4898422;29;20530;-85
2021/07/20 01:35:16;;;;;;;21.13;14.83;;;;;;;23.67;86.15;94375.81;4898515;29;20574;-85
2021/07/20 01:37:44;;;;;;;21.63;15.10;;;;;;;23.68;86.02;94384.66;4898544;29;20574;-84
2021/07/20 01:40:14;;;;;;;14.63;13.27;;;;;;;23.58;86.50;94379.84;4898313;29;20915;-85
2021/07/20 01:42:43;;;;;;;17.20;14.13;;;;;;;23.62;86.52;94389.06;4898579;29;20462;-85
2021/07/20 01:45:12;;;;;;;21.47;14.97;;;;;;;23.56;86.86;94386.47;4898975;29;20538;-85
2021/07/20 01:47:41;;;;;;;16.43;13.93;;;;;;;23.58;86.89;94384.38;4899565;29;21028;-85
2021/07/20 01:50:09;;;;;;;15.00;13.43;;;;;;;23.60;86.48;94379.59;4898203;29;20527;-85
2021/07/20 01:52:37;;;;;;;16.80;13.97;;;;;;;23.64;86.84;94375.44;4898422;29;20453;-85
2021/07/20 01:55:04;;;;;;;25.07;14.03;;;;;;;23.63;86.58;94382.66;4898612;29;20537;-85
2021/07/20 01:57:33;;;;;;;15.63;14.03;;;;;;;23.67;85.54;94383.84;4898478;29;20503;-85
2021/07/20 02:00:01;;;;;;;15.70;14.00;;;;;;;23.71;85.36;94386.94;4898174;29;21385;-85
2021/07/20 02:02:34;;;;;;;26.30;15.27;;;;;;;23.70;84.91;94388.75;4850547;29;20522;-85
2021/07/20 02:10:35;;;;;;;17.27;14.60;;;;;;;23.55;86.07;94374.06;4901922;29;20482;-85
2021/07/20 02:13:06;;;;;;;20.20;15.47;;;;;;;23.43;85.93;94372.16;4902142;29;20458;-85
2021/07/20 02:15:35;;;;;;;16.93;15.33;;;;;;;23.37;86.72;94382.91;4902255;29;20623;-85
2021/07/20 02:18:03;;;;;;;15.50;13.90;;;;;;;23.39;87.90;94389.66;4902301;29;20545;-85
2021/07/20 02:20:32;;;;;;;21.47;13.60;;;;;;;23.43;87.66;94393.56;4902274;29;20449;-85
2021/07/20 02:23:00;;;;;;;15.33;13.80;;;;;;;23.41;86.37;94390.25;4902010;29;20458;-85
2021/07/20 02:25:29;;;;;;;14.43;12.90;;;;;;;23.36;86.72;94387.44;4901811;29;20950;-85
2021/07/20 02:27:57;;;;;;;16.40;14.70;;;;;;;23.26;87.38;94389.81;4901682;29;20438;-85
2021/07/20 02:30:26;;;;;;;19.33;15.13;;;;;;;23.14;88.01;94380.88;4902004;29;20523;-85
2021/07/20 02:53:09;;;;;;;18.37;15.47;;;;;;;21.23;94.92;94383.44;4901304;29;20503;-85
2021/07/20 02:55:37;;;;;;;16.70;14.90;;;;;;;21.20;95.50;94383.00;4901266;29;20524;-84
2021/07/20 02:58:05;;;;;;;19.17;15.80;;;;;;;21.21;96.20;94389.97;4901537;29;20508;-85
2021/07/20 03:00:33;;;;;;;18.40;15.43;;;;;;;21.28;96.96;94393.47;4901695;29;20528;-85
2021/07/20 03:03:00;;;;;;;21.03;16.20;;;;;;;21.30;95.96;94391.44;4901162;29;20526;-86
2021/07/20 03:05:27;;;;;;;25.00;16.83;;;;;;;21.44;96.90;94398.41;4901253;29;20453;-86
2021/07/20 03:07:57;;;;;;;19.20;17.07;;;;;;;21.67;96.46;94394.41;4901320;29;20993;-85
2021/07/20 03:10:32;;;;;;;21.10;17.17;;;;;;;21.80;94.57;94395.22;4901408;29;20564;-88
2021/07/20 03:13:19;;;;;;;24.50;16.93;;;;;;;21.92;92.13;94403.38;4901501;29;20465;-88
2021/07/20 03:15:46;;;;;;;21.93;16.50;;;;;;;21.88;91.31;94402.16;4861997;29;20560;-88
2021/07/20 03:18:15;;;;;;;21.93;17.10;;;;;;;21.99;93.63;94406.88;4861712;29;20491;-85
2021/07/20 03:20:43;;;;;;;22.97;17.83;;;;;;;22.12;91.80;94404.16;4861894;29;20469;-85
2021/07/20 03:23:13;;;;;;;20.40;17.50;;;;;;;22.15;90.67;94409.06;4861450;29;20544;-85
2021/07/20 03:25:43;;;;;;;19.93;16.70;;;;;;;22.27;92.29;94403.88;4861516;29;20519;-85
2021/07/20 03:28:11;;;;;;;22.23;15.70;;;;;;;22.50;92.27;94408.66;4861356;29;20984;-86
2021/07/20 03:30:38;;;;;;;22.80;15.43;;;;;;;22.68;91.51;94414.13;4861430;29;20562;-84
2021/07/20 03:33:07;;;;;;;20.63;17.00;;;;;;;22.93;91.70;94418.72;4861846;29;20457;-86
2021/07/20 03:35:34;;;;;;;23.07;17.03;;;;;;;23.11;88.37;94422.25;4862111;29;20835;-86
2021/07/20 03:38:02;;;;;;;19.87;17.80;;;;;;;23.18;88.90;94419.53;4861505;29;20569;-87
2021/07/20 03:40:33;;;;;;;20.20;15.90;;;;;;;23.28;87.69;94416.34;4882922;29;21050;-84
2021/07/20 03:46:24;;;;;;;21.03;17.03;;;;;;;23.07;86.63;94426.41;4882134;29;20471;-85
2021/07/20 03:48:52;;;;;;;20.87;16.63;;;;;;;22.96;86.82;94426.31;4882715;29;20524;-83
2021/07/20 03:51:21;;;;;;;21.83;17.37;;;;;;;22.91;88.04;94431.50;4882579;29;20450;-85
2021/07/20 03:53:51;;;;;;;19.07;16.80;;;;;;;22.97;88.76;94433.28;4850023;29;21009;-86
2021/07/20 03:59:41;;;;;;;19.83;16.00;;;;;;;23.27;85.89;94431.59;4882336;29;20450;-84
2021/07/20 04:02:10;;;;;;;24.07;17.47;;;;;;;23.43;87.14;94439.09;4855710;29;20852;-85
2021/07/20 04:04:41;;;;;;;21.43;16.43;;;;;;;23.54;85.29;94442.06;4881144;29;20542;-84
2021/07/20 04:07:14;;;;;;;25.00;17.80;;;;;;;23.55;86.07;94447.22;4880667;29;20542;-85
2021/07/20 04:09:42;;;;;;;21.50;16.43;;;;;;;23.43;85.62;94451.66;4880445;29;20498;-82
2021/07/20 04:12:14;;;;;;;21.70;17.03;;;;;;;23.08;84.58;94448.63;4880678;29;20555;-81
2021/07/20 04:14:42;;;;;;;23.63;19.20;;;;;;;22.77;86.63;94450.25;4880550;29;20526;-81
2021/07/20 04:17:12;;;;;;;24.97;19.93;;;;;;;22.48;87.83;94448.19;4880524;29;20540;-82
2021/07/20 04:19:40;;;;;;;29.60;21.23;;;;;;;22.29;88.76;94452.59;4880416;29;20590;-83
2021/07/20 04:22:08;;;;;;;26.83;19.67;;;;;;;22.08;89.92;94445.69;4880006;29;20456;-85
2021/07/20 04:24:36;;;;;;;30.10;21.90;;;;;;;21.98;91.10;94445.31;4880070;29;20551;-84
2021/07/20 04:27:04;;;;;;;28.07;21.03;;;;;;;21.87;91.40;94445.94;4832357;29;21014;-84
2021/07/20 04:29:32;;;;;;;28.83;20.73;;;;;;;22.11;96.83;94444.44;4880344;29;20463;-82
2021/07/20 04:32:04;;;;;;;22.47;20.00;;;;;;;22.41;93.23;94455.41;4885168;29;20526;-83
2021/07/20 04:34:34;;;;;;;25.47;18.70;;;;;;;22.60;91.08;94456.34;4899767;29;20821;-86
2021/07/20 04:37:02;;;;;;;29.80;20.17;;;;;;;22.77;88.95;94452.94;4897749;29;20459;-86
2021/07/20 04:39:33;;;;;;;26.83;20.00;;;;;;;22.72;87.90;94460.78;4896771;29;20865;-84
2021/07/20 04:42:00;;;;;;;28.87;21.87;;;;;;;22.92;89.86;94450.00;4882476;29;20534;-84
2021/07/20 04:44:27;;;;;;;33.53;22.00;;;;;;;23.10;88.03;94463.44;4883182;29;21017;-84
2021/07/20 04:46:55;;;;;;;26.00;20.57;;;;;;;22.97;84.92;94462.72;4872760;29;20505;-83
2021/07/20 04:49:22;;;;;;;28.10;21.87;;;;;;;22.94;85.74;94465.84;4898393;29;20462;-84
2021/07/20 04:51:50;;;;;;;24.70;19.63;;;;;;;22.98;87.67;94464.38;4889343;29;20806;-84
2021/07/20 04:54:18;;;;;;;31.20;22.27;;;;;;;22.98;85.03;94453.66;4898295;29;20455;-81
2021/07/20 04:56:46;;;;;;;26.20;21.30;;;;;;;22.99;86.55;94456.13;4885151;29;20529;-84
2021/07/20 04:59:13;;;;;;;30.63;22.87;;;;;;;22.94;85.24;94452.47;4885529;29;20516;-85
2021/07/20 05:01:42;;;;;;;24.17;20.17;;;;;;;22.93;85.46;94461.53;4896958;29;20648;-82
2021/07/20 05:04:10;;;;;;;31.50;21.83;;;;;;;22.97;84.96;94460.06;4892112;29;20450;-82
2021/07/20 05:06:38;;;;;;;24.50;20.50;;;;;;;23.06;85.20;94474.81;4888589;29;20898;-90
2021/07/20 05:09:07;;;;;;;26.57;21.93;;;;;;;22.95;84.34;94462.13;4889978;29;20456;-85
2021/07/20 05:11:37;;;;;;;25.00;20.30;;;;;;;22.91;83.47;94468.94;4839459;29;20575;-82
2021/07/20 05:14:05;;;;;;;28.23;22.00;;;;;;;22.90;84.00;94462.78;4862536;29;20449;-82
2021/07/20 05:16:34;;;;;;;32.33;21.03;;;;;;;22.93;85.28;94456.19;4862580;29;20483;-83
2021/07/20 05:19:02;;;;;;;27.67;20.30;;;;;;;23.08;83.82;94456.66;4864024;29;20478;-82
2021/07/20 05:21:30;;;;;;;29.27;19.53;;;;;;;23.24;83.72;94455.31;4862915;29;20515;-83
2021/07/20 05:23:58;;;;;;;28.90;21.10;;;;;;;23.36;83.00;94451.69;4880956;29;20541;-83
2021/07/20 05:26:27;;;;;;;26.37;20.87;;;;;;;23.46;81.27;94472.66;4881552;29;20456;-83
2021/07/20 05:28:55;;;;;;;29.23;23.23;;;;;;;23.47;82.83;94472.44;4880035;29;20457;-84
2021/07/20 05:31:22;;;;;;;30.17;19.37;;;;;;;23.46;83.64;94475.31;4880233;29;20551;-83
2021/07/20 05:33:50;;;;;;;26.67;20.40;;;;;;;23.69;83.09;94472.84;4880954;29;20445;-82
2021/07/20 05:36:17;;;;;;;25.90;21.07;;;;;;;23.93;80.67;94476.53;4880160;29;20425;-84
2021/07/20 05:38:44;;;;;;;26.50;20.47;;;;;;;24.04;79.89;94491.91;4880377;29;20586;-84
2021/07/20 05:41:12;;;;;;;26.77;19.77;;;;;;;23.94;78.11;94483.53;4880276;29;20455;-84
2021/07/20 05:43:42;;;;;;;22.77;20.27;;;;;;;24.09;81.08;94492.03;4879096;29;20955;-84
2021/07/20 05:46:09;;;;;;;25.30;19.70;;;;;;;24.03;77.34;94486.75;4879973;29;20558;-85
2021/07/20 05:48:37;;;;;;;24.10;19.23;;;;;;;24.26;78.05;94489.56;4879692;29;20990;-86
2021/07/20 05:51:08;;;;;;;27.20;18.77;;;;;;;24.45;77.76;94500.31;4879941;29;20437;-87
2021/07/20 05:53:38;;;;;;;21.63;18.17;;;;;;;24.60;75.55;94504.28;4880086;29;20794;-85
2021/07/20 05:56:06;;;;;;;25.03;19.60;;;;;;;24.58;75.69;94497.50;4847586;29;20543;-87
2021/07/20 05:58:33;;;;;;;28.23;19.77;;;;;;;24.67;74.57;94496.94;4879604;29;20501;-83
2021/07/20 06:01:04;;;;;;;26.70;19.80;;;;;;;24.70;75.62;94501.88;4879460;29;20958;-83
2021/07/20 06:03:32;;;;;;;21.97;16.23;;;;;;;24.80;77.56;94506.69;4847023;29;20456;-83
2021/07/20 06:06:00;;;;;;;28.73;19.63;;;;;;;24.81;75.11;94494.06;4879707;29;20451;-87
2021/07/20 06:08:29;;;;;;;23.93;18.60;;;;;;;25.08;74.93;94502.59;4880471;29;20433;-86
2021/07/20 06:25:27;;;;;;;35.13;22.43;;;;;;;25.08;75.44;94514.16;4879245;29;20460;-84
2021/07/20 06:27:56;;;;;;;31.10;23.37;;;;;;;25.19;76.59;94513.41;4879082;29;20447;-83
2021/07/20 06:30:23;;;;;;;33.53;22.83;;;;;;;25.39;73.59;94514.94;4878951;29;20445;-83
2021/07/20 06:32:53;;;;;;;31.40;22.93;;;;;;;25.48;73.01;94513.59;4879184;29;20536;-84
2021/07/20 06:35:20;;;;;;;26.90;21.73;;;;;;;25.56;71.82;94510.56;4879597;29;20854;-83
2021/07/20 06:44:33;;;;;;;22.17;18.27;;;;;;;25.95;71.45;94506.38;4878449;29;20448;-82
2021/07/20 06:47:00;;;;;;;19.60;16.30;;;;;;;25.88;69.92;94505.69;4879366;29;20473;-83
2021/07/20 06:49:28;;;;;;;26.17;17.07;;;;;;;25.78;70.90;94513.53;4879200;29;20537;-83
2021/07/20 06:51:55;;;;;;;20.87;17.47;;;;;;;25.87;70.49;94514.81;4877197;29;20468;-84
2021/07/20 06:54:23;;;;;;;24.17;18.40;;;;;;;25.56;73.03;94508.69;4849075;29;20442;-83
2021/07/20 06:56:54;;;;;;;23.47;19.00;;;;;;;25.69;72.45;94515.72;4882303;29;20525;-82
2021/07/20 06:59:22;;;;;;;17.87;16.07;;;;;;;25.64;72.34;94518.25;4883325;29;20500;-83
2021/07/20 07:01:52;;;;;;;22.67;17.07;;;;;;;25.72;73.92;94515.25;4883435;29;20513;-84
2021/07/20 07:04:26;;;;;;;28.90;17.07;;;;;;;25.63;71.72;94512.06;4866128;29;20454;-84
2021/07/20 07:06:56;;;;;;;17.83;15.47;;;;;;;25.53;71.85;94519.91;4883028;29;20457;-84
2021/07/20 07:09:25;;;;;;;21.63;15.93;;;;;;;25.58;71.36;94511.13;4882684;29;21006;-84
2021/07/20 07:11:53;;;;;;;17.70;15.10;;;;;;;25.73;71.55;94514.19;4849831;29;20539;-84
2021/07/20 07:14:21;;;;;;;18.53;15.07;;;;;;;25.78;70.67;94511.66;4882608;29;20481;-84
2021/07/20 07:16:50;;;;;;;21.70;13.53;;;;;;;26.04;69.62;94512.25;4882652;29;20449;-83
2021/07/20 07:19:19;;;;;;;21.50;17.50;;;;;;;26.32;69.30;94525.78;4882111;29;20571;-84
2021/07/20 07:21:48;;;;;;;18.63;15.17;;;;;;;26.46;68.96;94521.81;4882424;29;20502;-84
2021/07/20 07:24:16;;;;;;;17.60;14.50;;;;;;;26.34;67.84;94529.09;4891885;29;21007;-84
2021/07/20 07:26:47;;;;;;;15.23;13.60;;;;;;;26.20;68.84;94528.47;4901159;29;20976;-83
2021/07/20 07:29:16;;;;;;;19.80;13.40;;;;;;;25.91;69.62;94524.84;4900748;29;20540;-84
2021/07/20 07:31:45;;;;;;;15.90;13.80;;;;;;;26.20;71.43;94522.28;4900775;29;20521;-84
2021/07/20 07:34:14;;;;;;;14.10;12.60;;;;;;;26.46;67.63;94527.19;4900423;29;20483;-84
2021/07/20 07:36:43;;;;;;;17.47;12.67;;;;;;;26.81;67.30;94535.16;4900780;29;20476;-83
2021/07/20 07:52:47;;;;;;;15.77;12.80;;;;;;;27.29;64.22;94530.44;4900278;29;20464;-84
2021/07/20 07:55:16;;;;;;;13.73;12.33;;;;;;;27.25;62.83;94537.38;4894011;29;20460;-83
2021/07/20 07:57:44;;;;;;;14.23;12.73;;;;;;;27.10;66.12;94527.13;4881549;29;20446;-84
2021/07/20 08:00:12;;;;;;;15.53;11.43;;;;;;;27.08;65.53;94532.75;4881534;29;20496;-83
2021/07/20 08:02:41;;;;;;;14.97;12.30;;;;;;;26.92;67.35;94525.44;4848837;29;20517;-83
2021/07/20 08:05:12;;;;;;;14.63;12.70;;;;;;;26.93;69.60;94528.94;4881341;29;20419;-83
2021/07/20 08:07:40;;;;;;;19.63;12.80;;;;;;;26.79;66.48;94523.00;4880194;29;20461;-83
2021/07/20 08:10:10;;;;;;;18.77;11.00;;;;;;;26.66;65.11;94531.38;4881463;29;20917;-84
2021/07/20 08:12:39;;;;;;;13.00;11.77;;;;;;;26.45;64.46;94530.13;4881538;29;20525;-84
2021/07/20 08:15:07;;;;;;;20.43;12.40;;;;;;;26.39;66.45;94526.50;4881086;29;20453;-84
2021/07/20 08:17:35;;;;;;;13.70;11.47;;;;;;;26.28;66.00;94523.78;4881027;29;20525;-84
2021/07/20 08:20:04;;;;;;;15.43;10.83;;;;;;;26.42;66.28;94517.94;4881158;29;21122;-83
2021/07/20 08:22:31;;;;;;;13.97;11.30;;;;;;;26.47;64.54;94525.31;4888445;29;20449;-84
2021/07/20 08:25:08;;;;;;;12.30;11.20;;;;;;;26.36;64.40;94524.28;4900155;29;20487;-83
2021/07/20 08:27:43;;;;;;;12.93;10.70;;;;;;;26.32;65.04;94525.78;4900621;29;20531;-84
2021/07/20 08:30:11;;;;;;;15.40;11.20;;;;;;;26.35;65.03;94517.28;4899878;29;20523;-84
2021/07/20 08:32:46;;;;;;;14.63;9.80;;;;;;;26.61;65.05;94520.50;4867417;29;20532;-83
2021/07/20 08:35:17;;;;;;;13.10;11.47;;;;;;;26.89;64.56;94525.91;4899459;29;20545;-83
2021/07/20 08:37:47;;;;;;;12.87;11.40;;;;;;;27.12;62.98;94523.13;4867877;29;20963;-84
2021/07/20 08:40:26;;;;;;;12.17;10.97;;;;;;;27.34;62.43;94515.19;4899352;29;20504;-83
2021/07/20 08:43:11;;;;;;;12.20;11.00;;;;;;;27.50;61.42;94516.28;4899485;29;20455;-83
2021/07/20 08:45:54;;;;;;;12.33;11.03;;;;;;;27.80;62.40;94515.97;4899751;29;20541;-83
2021/07/20 08:48:25;;;;;;;13.30;11.50;;;;;;;28.07;61.86;94521.50;4899151;29;20438;-83
2021/07/20 08:50:59;;;;;;;12.13;10.93;;;;;;;28.21;59.15;94516.56;4899712;29;20445;-83
2021/07/20 08:53:34;;;;;;;16.90;11.77;;;;;;;28.38;59.94;94526.31;4899239;29;20607;-83
2021/07/20 08:59:33;;;;;;;14.17;10.33;;;;;;;28.71;58.99;94507.56;4898642;29;20584;-83
2021/07/20 09:02:18;;;;;;;12.37;10.80;;;;;;;28.65;58.17;94512.06;4899089;29;21013;-83
2021/07/20 09:04:59;;;;;;;12.40;11.07;;;;;;;28.57;57.60;94510.59;4899431;29;20520;-84
2021/07/20 09:07:36;;;;;;;15.10;11.00;;;;;;;28.45;58.91;94509.94;4898891;29;20455;-82
2021/07/20 09:10:06;;;;;;;11.90;10.70;;;;;;;28.09;59.16;94508.59;4899170;29;20452;-82
2021/07/20 09:12:37;;;;;;;12.43;11.00;;;;;;;27.91;59.13;94508.84;4898873;29;20461;-82
2021/07/20 09:15:10;;;;;;;12.30;10.60;;;;;;;27.77;60.54;94506.50;4898880;29;20468;-82
2021/07/20 09:28:36;;;;;;;11.53;10.33;;;;;;;27.22;61.82;94500.16;4895578;29;20451;-83
2021/07/20 09:31:09;;;;;;;10.50;9.50;;;;;;;27.01;62.00;94498.94;4898465;29;20453;-82
2021/07/20 09:33:43;;;;;;;11.17;10.07;;;;;;;27.08;61.67;94497.75;4898723;29;20438;-81
2021/07/20 09:36:16;;;;;;;11.97;10.17;;;;;;;27.22;62.76;94502.84;4898416;29;20441;-82
2021/07/20 09:39:04;;;;;;;9.67;8.70;;;;;;;27.46;62.19;94504.31;4898989;29;20445;-81
2021/07/20 09:41:36;;;;;;;11.63;10.03;;;;;;;27.43;60.51;94500.22;4898579;29;20447;-81
2021/07/20 09:44:12;;;;;;;12.13;10.43;;;;;;;27.39;60.85;94498.28;4898568;29;20524;-83
2021/07/20 09:46:45;;;;;;;14.37;10.40;;;;;;;27.26;59.80;94498.59;4898074;29;20533;-82
2021/07/20 09:49:19;;;;;;;11.47;10.30;;;;;;;27.17;59.97;94490.06;4898245;29;20453;-83
2021/07/20 09:52:13;;;;;;;12.10;10.90;;;;;;;27.23;62.05;94493.69;4899011;29;20464;-81
2021/07/20 09:55:06;;;;;;;11.67;10.47;;;;;;;27.44;62.47;94495.66;4898442;29;20809;-82
2021/07/20 09:57:45;;;;;;;13.50;10.83;;;;;;;27.55;61.44;94485.88;4898560;29;20540;-82
2021/07/20 10:00:17;;;;;;;11.27;10.03;;;;;;;27.43;59.96;94491.34;4898287;29;20504;-84
2021/07/20 10:02:56;;;;;;;11.73;10.13;;;;;;;27.37;61.70;94485.03;4850582;29;20441;-83
2021/07/20 10:05:31;;;;;;;13.40;12.00;;;;;;;27.53;60.89;94477.22;4898713;29;20838;-84
2021/07/20 10:08:01;;;;;;;13.13;11.17;;;;;;;27.61;59.79;94484.91;4898833;29;20451;-84
2021/07/20 10:10:35;;;;;;;11.30;10.10;;;;;;;27.61;59.85;94480.31;4898482;29;20447;-85
2021/07/20 10:13:07;;;;;;;15.27;11.47;;;;;;;27.62;60.08;94465.81;4898082;29;20845;-84
2021/07/20 10:15:50;;;;;;;11.53;9.63;;;;;;;27.53;59.02;94469.13;4898076;29;20801;-83
2021/07/20 10:18:26;;;;;;;11.10;10.10;;;;;;;27.44;59.33;94468.69;4898088;29;20441;-83
2021/07/20 10:24:21;;;;;;;12.03;10.80;;;;;;;27.16;59.75;94474.97;4898093;29;20508;-83
2021/07/20 10:26:56;;;;;;;12.73;11.53;;;;;;;27.32;60.55;94474.19;4898224;29;20456;-82
2021/07/20 10:29:33;;;;;;;11.47;10.33;;;;;;;27.47;60.15;94476.31;4897794;29;20483;-82
2021/07/20 10:32:07;;;;;;;13.60;10.53;;;;;;;27.68;60.68;94475.59;4901894;29;20440;-82
2021/07/20 10:34:41;;;;;;;11.83;10.67;;;;;;;27.74;57.05;94471.91;4901997;29;20809;-83
2021/07/20 10:37:13;;;;;;;10.70;9.60;;;;;;;27.75;56.30;94470.84;4902023;29;20460;-83
2021/07/20 10:39:44;;;;;;;10.43;9.47;;;;;;;27.85;57.61;94469.38;4901846;29;20575;-83
2021/07/20 10:42:15;;;;;;;11.23;10.13;;;;;;;27.85;57.40;94470.19;4901853;29;20528;-83
2021/07/20 10:44:49;;;;;;;11.07;9.90;;;;;;;27.71;58.51;94475.09;4902262;29;20539;-81
2021/07/20 10:47:18;;;;;;;11.70;9.97;;;;;;;27.70;59.01;94468.06;4868537;29;20457;-83
2021/07/20 10:49:54;;;;;;;10.83;9.73;;;;;;;27.67;57.89;94457.78;4901804;29;20775;-84
2021/07/20 10:52:30;;;;;;;11.10;9.90;;;;;;;27.67;57.19;94460.50;4901447;29;20484;-85
2021/07/20 10:55:03;;;;;;;10.33;9.43;;;;;;;27.73;56.66;94461.38;4901707;29;20487;-84
2021/07/20 10:57:39;;;;;;;13.93;12.03;;;;;;;27.80;56.89;94455.84;4901542;29;20517;-84
2021/07/20 11:00:13;;;;;;;14.40;9.80;;;;;;;27.75;56.47;94456.56;4901561;29;20516;-85
2021/07/20 11:02:50;;;;;;;12.07;10.77;;;;;;;27.46;57.15;94445.03;4901022;29;20528;-85
2021/07/20 11:05:19;;;;;;;12.10;9.10;;;;;;;27.53;57.47;94452.97;4901490;29;20433;-84
2021/07/20 11:07:50;;;;;;;11.53;9.87;;;;;;;27.62;58.43;94449.63;4901154;29;20563;-84
2021/07/20 11:10:30;;;;;;;10.27;9.33;;;;;;;27.82;56.61;94451.00;4901181;29;20455;-84
2021/07/20 11:13:00;;;;;;;11.23;9.97;;;;;;;27.94;55.73;94452.53;4900899;29;20536;-84
2021/07/20 11:15:30;;;;;;;12.07;10.00;;;;;;;27.91;55.51;94446.81;4901170;29;20788;-84
2021/07/20 11:18:00;;;;;;;13.93;11.50;;;;;;;27.94;55.51;94452.53;4868918;29;21464;-85
2021/07/20 11:20:30;;;;;;;13.57;10.67;;;;;;;27.91;55.77;94447.63;4900816;29;20568;-85
2021/07/20 11:22:58;;;;;;;10.87;9.87;;;;;;;27.91;56.86;94452.22;4901218;29;20460;-83
2021/07/20 11:25:26;;;;;;;12.90;11.60;;;;;;;27.91;56.83;94453.03;4900769;29;20524;-84
2021/07/20 11:27:54;;;;;;;13.13;11.77;;;;;;;27.94;56.10;94446.31;4901209;29;20528;-84
2021/07/20 11:30:22;;;;;;;12.37;10.90;;;;;;;27.95;56.41;94447.94;4901143;29;20888;-85
2021/07/20 11:32:57;;;;;;;11.40;10.23;;;;;;;27.74;55.98;94436.84;4901434;29;20543;-84
2021/07/20 11:35:26;;;;;;;15.47;11.90;;;;;;;27.55;56.21;94446.25;4901065;29;20433;-86
2021/07/20 11:38:01;;;;;;;12.93;11.10;;;;;;;27.41;57.09;94453.03;4900599;29;20536;-85
2021/07/20 11:40:36;;;;;;;12.27;10.97;;;;;;;27.40;57.83;94443.31;4900735;29;20496;-83
2021/07/20 11:43:08;;;;;;;14.03;11.40;;;;;;;27.30;57.48;94440.47;4900393;29;20985;-83
2021/07/20 11:45:43;;;;;;;14.43;12.40;;;;;;;27.38;57.69;94442.75;4900821;29;20516;-83
2021/07/20 11:48:13;;;;;;;13.43;12.23;;;;;;;27.48;57.86;94448.31;4900397;29;20936;-84
2021/07/20 11:50:45;;;;;;;14.73;11.20;;;;;;;27.64;57.71;94446.69;4900952;29;20457;-82
2021/07/20 11:53:25;;;;;;;13.07;11.67;;;;;;;27.75;54.82;94441.19;4900586;29;20520;-83
2021/07/20 11:55:57;;;;;;;11.83;10.53;;;;;;;27.89;55.50;94448.94;4868462;29;20452;-83
2021/07/20 11:58:56;;;;;;;11.10;10.10;;;;;;;27.87;53.54;94441.09;4900080;29;21028;-83
2021/07/20 12:02:02;;;;;;;13.10;11.10;;;;;;;27.91;53.79;94446.81;4899932;29;20576;-83
2021/07/20 12:05:05;;;;;;;11.83;10.37;;;;;;;27.96;54.42;94441.50;4900105;29;20579;-84
2021/07/20 12:07:39;;;;;;;12.53;11.10;;;;;;;28.12;55.80;94437.13;4824130;29;20916;-85
2021/07/20 12:10:20;;;;;;;12.23;11.03;;;;;;;28.28;55.91;94436.28;4824201;29;20462;-84
2021/07/20 12:12:52;;;;;;;13.30;11.87;;;;;;;28.36;54.73;94433.97;4824185;29;20510;-83
2021/07/20 12:15:20;;;;;;;13.57;12.27;;;;;;;28.43;55.39;94435.66;4794325;29;20453;-84
2021/07/20 12:17:48;;;;;;;12.97;11.50;;;;;;;28.50;54.58;94428.19;4824162;29;20441;-83
2021/07/20 12:20:19;;;;;;;13.67;11.73;;;;;;;28.49;53.35;94424.66;4824044;29;20579;-82
2021/07/20 12:22:48;;;;;;;12.50;10.60;;;;;;;28.48;52.31;94424.91;4823904;29;20524;-85
2021/07/20 12:25:18;;;;;;;18.43;12.23;;;;;;;28.49;53.55;94427.38;4823868;29;20457;-84
2021/07/20 12:27:47;;;;;;;13.57;12.17;;;;;;;28.47;54.17;94428.69;4823667;29;20441;-85
2021/07/20 12:30:17;;;;;;;15.73;13.10;;;;;;;28.54;52.88;94434.69;4823503;29;20500;-84
2021/07/20 12:32:45;;;;;;;15.30;11.67;;;;;;;28.60;52.92;94422.88;4805285;29;20528;-85
2021/07/20 12:35:15;;;;;;;14.73;11.97;;;;;;;28.65;53.50;94421.09;4805329;29;20550;-82
2021/07/20 12:37:42;;;;;;;14.00;12.70;;;;;;;28.66;53.92;94420.00;4805765;29;20485;-83
2021/07/20 12:40:11;;;;;;;14.30;12.77;;;;;;;28.65;53.72;94420.25;4805354;29;20493;-83
2021/07/20 12:42:41;;;;;;;15.07;13.10;;;;;;;28.63;53.81;94422.41;4805434;29;20502;-83
2021/07/20 12:45:10;;;;;;;14.67;13.27;;;;;;;28.60;54.11;94420.19;4867494;29;20527;-83
2021/07/20 12:47:41;;;;;;;14.23;12.60;;;;;;;28.65;54.20;94417.56;4899295;29;20484;-83
2021/07/20 12:50:29;;;;;;;14.17;12.67;;;;;;;28.73;55.54;94411.69;4899933;29;20789;-83
2021/07/20 12:52:57;;;;;;;15.13;13.60;;;;;;;28.81;54.12;94416.63;4859497;29;20538;-82
2021/07/20 12:55:24;;;;;;;15.67;12.13;;;;;;;28.79;52.87;94410.69;4859845;29;20450;-83
2021/07/20 12:57:54;;;;;;;13.10;11.60;;;;;;;28.65;53.19;94421.09;4859728;29;20461;-82
2021/07/20 13:00:23;;;;;;;13.50;12.10;;;;;;;28.47;54.16;94417.88;4859718;29;20483;-83